Terminal Aerodrome Forecast
Issued by NWS

Home | Current Version | Previous Version | Text Only | Print | Product List | Glossary On
Versions: 1 2 3 4 5 6 7 8 9 10 11 12 13 14
000
FTUS46 KMTR 241100
TAFSNS
TAF
KSNS 241125Z 2412/2512 11004KT P6SM BKN005
     FM241700 VRB03KT P6SM SCT010
     FM241900 28012KT P6SM SCT250
     FM250300 29006KT P6SM BKN015=

USA.gov is the U.S. government's official web portal to all federal, state and local government web resources and services.